sensor_id;sensor_type;location;lat;lon;timestamp;pressure;altitude;pressure_sealevel;temperature;humidity
12358;BME280;6243;51.244;6.774;2023-07-31T00:02:10;115150.97;;;-141.28;42.36
12358;BME280;6243;51.244;6.774;2023-07-31T00:04:35;115150.97;;;-141.28;43.44
12358;BME280;6243;51.244;6.774;2023-07-31T00:07:01;115150.97;;;-141.28;44.71
12358;BME280;6243;51.244;6.774;2023-07-31T00:09:26;115150.97;;;-141.28;42.22
12358;BME280;6243;51.244;6.774;2023-07-31T00:11:52;115150.97;;;-141.28;42.18
12358;BME280;6243;51.244;6.774;2023-07-31T00:14:17;115150.97;;;-141.28;42.57
12358;BME280;6243;51.244;6.774;2023-07-31T00:16:43;115150.97;;;-141.28;41.99
12358;BME280;6243;51.244;6.774;2023-07-31T00:19:10;115150.97;;;-141.28;41.39
12358;BME280;6243;51.244;6.774;2023-07-31T00:21:35;115150.97;;;-141.28;42.01
12358;BME280;6243;51.244;6.774;2023-07-31T00:24:00;115150.97;;;-141.28;42.24
12358;BME280;6243;51.244;6.774;2023-07-31T00:26:26;115150.97;;;-141.28;42.13
12358;BME280;6243;51.244;6.774;2023-07-31T00:28:51;115150.97;;;-141.28;42.59
12358;BME280;6243;51.244;6.774;2023-07-31T00:31:17;115150.97;;;-141.28;41.33
12358;BME280;6243;51.244;6.774;2023-07-31T00:33:42;115150.97;;;-141.28;42.74
12358;BME280;6243;51.244;6.774;2023-07-31T00:36:09;115150.97;;;-141.28;44.02
12358;BME280;6243;51.244;6.774;2023-07-31T00:38:35;115150.97;;;-141.28;43.18
12358;BME280;6243;51.244;6.774;2023-07-31T00:41:00;115150.97;;;-141.28;41.86
12358;BME280;6243;51.244;6.774;2023-07-31T00:43:26;115150.97;;;-141.28;43.84
12358;BME280;6243;51.244;6.774;2023-07-31T00:45:51;115150.97;;;-141.28;43.26
12358;BME280;6243;51.244;6.774;2023-07-31T00:48:17;115150.97;;;-141.28;42.68
12358;BME280;6243;51.244;6.774;2023-07-31T00:50:42;115150.97;;;-141.28;41.25
12358;BME280;6243;51.244;6.774;2023-07-31T00:53:10;115150.97;;;-141.28;40.80
12358;BME280;6243;51.244;6.774;2023-07-31T00:55:35;115150.97;;;-141.28;39.27
12358;BME280;6243;51.244;6.774;2023-07-31T00:58:01;115150.97;;;-141.28;39.78
12358;BME280;6243;51.244;6.774;2023-07-31T01:00:26;115150.97;;;-141.28;38.90
12358;BME280;6243;51.244;6.774;2023-07-31T01:02:52;115150.97;;;-141.28;41.95
12358;BME280;6243;51.244;6.774;2023-07-31T01:05:23;115150.97;;;-141.28;41.10
12358;BME280;6243;51.244;6.774;2023-07-31T01:07:56;115150.97;;;-141.28;40.41
12358;BME280;6243;51.244;6.774;2023-07-31T01:10:30;115150.97;;;-141.28;40.76
12358;BME280;6243;51.244;6.774;2023-07-31T01:13:00;115150.97;;;-141.28;41.42
12358;BME280;6243;51.244;6.774;2023-07-31T01:15:25;115150.97;;;-141.28;42.68
12358;BME280;6243;51.244;6.774;2023-07-31T01:17:51;115150.97;;;-141.28;41.45
12358;BME280;6243;51.244;6.774;2023-07-31T01:20:18;115150.97;;;-141.28;42.90
12358;BME280;6243;51.244;6.774;2023-07-31T01:22:59;115150.97;;;-141.28;41.91
12358;BME280;6243;51.244;6.774;2023-07-31T01:25:53;115150.97;;;-141.28;41.90
12358;BME280;6243;51.244;6.774;2023-07-31T01:28:23;115150.97;;;-141.28;41.92
12358;BME280;6243;51.244;6.774;2023-07-31T01:30:50;115150.97;;;-141.28;40.70
12358;BME280;6243;51.244;6.774;2023-07-31T01:33:16;115150.97;;;-141.28;39.93
12358;BME280;6243;51.244;6.774;2023-07-31T01:35:43;115150.97;;;-141.28;42.39
12358;BME280;6243;51.244;6.774;2023-07-31T01:38:09;115150.97;;;-141.28;42.17
12358;BME280;6243;51.244;6.774;2023-07-31T01:40:35;115150.97;;;-141.28;40.35
12358;BME280;6243;51.244;6.774;2023-07-31T01:43:05;115150.97;;;-141.28;40.91
12358;BME280;6243;51.244;6.774;2023-07-31T01:45:30;115150.97;;;-141.28;41.44
12358;BME280;6243;51.244;6.774;2023-07-31T01:47:56;115150.97;;;-141.28;40.28
12358;BME280;6243;51.244;6.774;2023-07-31T01:50:21;115150.97;;;-141.28;40.54
12358;BME280;6243;51.244;6.774;2023-07-31T01:52:47;115150.97;;;-141.28;40.22
12358;BME280;6243;51.244;6.774;2023-07-31T01:55:12;115150.97;;;-141.28;39.82
12358;BME280;6243;51.244;6.774;2023-07-31T01:57:38;115150.97;;;-141.28;39.95
12358;BME280;6243;51.244;6.774;2023-07-31T02:00:06;115150.97;;;-141.28;40.00
12358;BME280;6243;51.244;6.774;2023-07-31T02:02:32;115150.97;;;-141.28;41.34
12358;BME280;6243;51.244;6.774;2023-07-31T02:05:01;115150.97;;;-141.28;40.49
12358;BME280;6243;51.244;6.774;2023-07-31T02:07:26;115150.97;;;-141.28;41.06
12358;BME280;6243;51.244;6.774;2023-07-31T02:09:52;115150.97;;;-141.28;41.40
12358;BME280;6243;51.244;6.774;2023-07-31T02:12:17;115150.97;;;-141.28;40.48
12358;BME280;6243;51.244;6.774;2023-07-31T02:14:43;115150.97;;;-141.28;40.10
12358;BME280;6243;51.244;6.774;2023-07-31T02:17:10;115150.97;;;-141.28;39.78
12358;BME280;6243;51.244;6.774;2023-07-31T02:19:35;115150.97;;;-141.28;40.84
12358;BME280;6243;51.244;6.774;2023-07-31T02:22:01;115150.97;;;-141.28;42.17
12358;BME280;6243;51.244;6.774;2023-07-31T02:24:26;115150.97;;;-141.28;41.31
12358;BME280;6243;51.244;6.774;2023-07-31T02:26:52;115150.97;;;-141.28;42.89
12358;BME280;6243;51.244;6.774;2023-07-31T02:29:17;115150.97;;;-141.28;40.65
12358;BME280;6243;51.244;6.774;2023-07-31T02:31:43;115150.97;;;-141.28;40.85
12358;BME280;6243;51.244;6.774;2023-07-31T02:34:10;115150.97;;;-141.28;41.35
12358;BME280;6243;51.244;6.774;2023-07-31T02:36:35;115150.97;;;-141.28;41.80
12358;BME280;6243;51.244;6.774;2023-07-31T02:39:01;115150.97;;;-141.28;40.22
12358;BME280;6243;51.244;6.774;2023-07-31T02:41:26;115150.97;;;-141.28;40.87
12358;BME280;6243;51.244;6.774;2023-07-31T02:43:52;115150.97;;;-141.28;40.49
12358;BME280;6243;51.244;6.774;2023-07-31T02:46:18;115150.97;;;-141.28;41.84
12358;BME280;6243;51.244;6.774;2023-07-31T02:48:45;115150.97;;;-141.28;41.29
12358;BME280;6243;51.244;6.774;2023-07-31T02:51:12;115150.97;;;-141.28;43.46
12358;BME280;6243;51.244;6.774;2023-07-31T02:53:38;115150.97;;;-141.28;43.31
12358;BME280;6243;51.244;6.774;2023-07-31T02:56:04;115150.97;;;-141.28;42.31
12358;BME280;6243;51.244;6.774;2023-07-31T02:58:29;115150.97;;;-141.28;40.88
12358;BME280;6243;51.244;6.774;2023-07-31T03:00:55;115150.97;;;-141.28;41.04
12358;BME280;6243;51.244;6.774;2023-07-31T03:03:20;115150.97;;;-141.28;41.94
12358;BME280;6243;51.244;6.774;2023-07-31T03:05:46;115150.97;;;-141.28;41.44
12358;BME280;6243;51.244;6.774;2023-07-31T03:08:12;115150.97;;;-141.28;39.04
12358;BME280;6243;51.244;6.774;2023-07-31T03:10:38;115150.97;;;-141.28;43.08
12358;BME280;6243;51.244;6.774;2023-07-31T03:13:03;115150.97;;;-141.28;41.24
12358;BME280;6243;51.244;6.774;2023-07-31T03:15:29;115150.97;;;-141.28;38.28
12358;BME280;6243;51.244;6.774;2023-07-31T03:17:54;115150.97;;;-141.28;42.04
12358;BME280;6243;51.244;6.774;2023-07-31T03:20:20;115150.97;;;-141.28;41.72
12358;BME280;6243;51.244;6.774;2023-07-31T03:22:45;115150.97;;;-141.28;41.22
12358;BME280;6243;51.244;6.774;2023-07-31T03:25:12;115150.97;;;-141.28;44.40
12358;BME280;6243;51.244;6.774;2023-07-31T03:27:38;115150.97;;;-141.28;43.00
12358;BME280;6243;51.244;6.774;2023-07-31T03:30:04;115150.97;;;-141.28;43.44
12358;BME280;6243;51.244;6.774;2023-07-31T03:32:30;115150.97;;;-141.28;42.46
12358;BME280;6243;51.244;6.774;2023-07-31T03:34:55;115150.97;;;-141.28;41.99
12358;BME280;6243;51.244;6.774;2023-07-31T03:37:21;115150.97;;;-141.28;41.67
12358;BME280;6243;51.244;6.774;2023-07-31T03:39:46;115150.97;;;-141.28;43.62
12358;BME280;6243;51.244;6.774;2023-07-31T03:42:13;115150.97;;;-141.28;42.25
12358;BME280;6243;51.244;6.774;2023-07-31T03:44:39;115150.97;;;-141.28;41.82
12358;BME280;6243;51.244;6.774;2023-07-31T03:47:05;115150.97;;;-141.28;42.48
12358;BME280;6243;51.244;6.774;2023-07-31T03:49:30;115150.97;;;-141.28;43.75
12358;BME280;6243;51.244;6.774;2023-07-31T03:51:56;115150.97;;;-141.28;44.00
12358;BME280;6243;51.244;6.774;2023-07-31T03:54:21;115150.97;;;-141.28;42.86
12358;BME280;6243;51.244;6.774;2023-07-31T03:56:47;115150.97;;;-141.28;43.86
12358;BME280;6243;51.244;6.774;2023-07-31T03:59:14;115150.97;;;-141.28;42.86
12358;BME280;6243;51.244;6.774;2023-07-31T04:01:39;115150.97;;;-141.28;44.02
12358;BME280;6243;51.244;6.774;2023-07-31T04:04:05;115150.97;;;-141.28;43.37
12358;BME280;6243;51.244;6.774;2023-07-31T04:06:30;115150.97;;;-141.28;44.24
12358;BME280;6243;51.244;6.774;2023-07-31T04:08:56;115150.97;;;-141.28;42.45
12358;BME280;6243;51.244;6.774;2023-07-31T04:11:21;115150.97;;;-141.28;44.58
12358;BME280;6243;51.244;6.774;2023-07-31T04:13:47;115150.97;;;-141.28;42.44
12358;BME280;6243;51.244;6.774;2023-07-31T04:16:14;115150.97;;;-141.28;43.54
12358;BME280;6243;51.244;6.774;2023-07-31T04:18:39;115150.97;;;-141.28;42.63
12358;BME280;6243;51.244;6.774;2023-07-31T04:21:05;115150.97;;;-141.28;42.85
12358;BME280;6243;51.244;6.774;2023-07-31T04:23:30;115150.97;;;-141.28;43.11
12358;BME280;6243;51.244;6.774;2023-07-31T04:25:56;115150.97;;;-141.28;41.85
12358;BME280;6243;51.244;6.774;2023-07-31T04:28:22;115150.97;;;-141.28;42.74
12358;BME280;6243;51.244;6.774;2023-07-31T04:30:47;115150.97;;;-141.28;43.47
12358;BME280;6243;51.244;6.774;2023-07-31T04:33:14;115150.97;;;-141.28;44.10
12358;BME280;6243;51.244;6.774;2023-07-31T04:35:39;115150.97;;;-141.28;43.27
12358;BME280;6243;51.244;6.774;2023-07-31T04:38:05;115150.97;;;-141.28;44.76
12358;BME280;6243;51.244;6.774;2023-07-31T04:40:30;115150.97;;;-141.28;41.92
12358;BME280;6243;51.244;6.774;2023-07-31T04:42:56;115150.97;;;-141.28;43.36
12358;BME280;6243;51.244;6.774;2023-07-31T04:45:21;115150.97;;;-141.28;44.28
12358;BME280;6243;51.244;6.774;2023-07-31T04:47:47;115150.97;;;-141.28;40.76
12358;BME280;6243;51.244;6.774;2023-07-31T04:50:14;115150.97;;;-141.28;41.93
12358;BME280;6243;51.244;6.774;2023-07-31T04:52:39;115150.97;;;-141.28;43.59
12358;BME280;6243;51.244;6.774;2023-07-31T04:55:05;115150.97;;;-141.28;44.62
12358;BME280;6243;51.244;6.774;2023-07-31T04:57:31;115150.97;;;-141.28;44.48
12358;BME280;6243;51.244;6.774;2023-07-31T04:59:57;115150.97;;;-141.28;42.14
12358;BME280;6243;51.244;6.774;2023-07-31T05:02:23;115150.97;;;-141.28;45.05
12358;BME280;6243;51.244;6.774;2023-07-31T05:04:48;115150.97;;;-141.28;45.77
12358;BME280;6243;51.244;6.774;2023-07-31T05:07:15;115150.97;;;-141.28;45.02
12358;BME280;6243;51.244;6.774;2023-07-31T05:09:41;115150.97;;;-141.28;44.71
12358;BME280;6243;51.244;6.774;2023-07-31T05:12:07;115150.97;;;-141.28;45.27
12358;BME280;6243;51.244;6.774;2023-07-31T05:14:32;115150.97;;;-141.28;43.58
12358;BME280;6243;51.244;6.774;2023-07-31T05:16:58;115150.97;;;-141.28;43.37
12358;BME280;6243;51.244;6.774;2023-07-31T05:19:23;115150.97;;;-141.28;45.74
12358;BME280;6243;51.244;6.774;2023-07-31T05:21:49;115150.97;;;-141.28;44.85
12358;BME280;6243;51.244;6.774;2023-07-31T05:24:16;115150.97;;;-141.28;44.52
12358;BME280;6243;51.244;6.774;2023-07-31T05:26:41;115150.97;;;-141.28;46.79
12358;BME280;6243;51.244;6.774;2023-07-31T05:29:07;115150.97;;;-141.28;43.61
12358;BME280;6243;51.244;6.774;2023-07-31T05:31:32;115150.97;;;-141.28;39.14
12358;BME280;6243;51.244;6.774;2023-07-31T05:33:58;115150.97;;;-141.28;45.28
12358;BME280;6243;51.244;6.774;2023-07-31T05:36:23;115150.97;;;-141.28;45.07
12358;BME280;6243;51.244;6.774;2023-07-31T05:38:49;115150.97;;;-141.28;45.51
12358;BME280;6243;51.244;6.774;2023-07-31T05:41:16;115150.97;;;-141.28;45.12
12358;BME280;6243;51.244;6.774;2023-07-31T05:43:41;115150.97;;;-141.28;45.18
12358;BME280;6243;51.244;6.774;2023-07-31T05:46:07;115150.97;;;-141.28;44.98
12358;BME280;6243;51.244;6.774;2023-07-31T05:48:32;115150.97;;;-141.28;43.42
12358;BME280;6243;51.244;6.774;2023-07-31T05:50:58;115150.97;;;-141.28;44.45
12358;BME280;6243;51.244;6.774;2023-07-31T05:53:23;115150.97;;;-141.28;46.04
12358;BME280;6243;51.244;6.774;2023-07-31T05:55:49;115150.97;;;-141.28;44.66
12358;BME280;6243;51.244;6.774;2023-07-31T05:58:16;115150.97;;;-141.28;47.38
12358;BME280;6243;51.244;6.774;2023-07-31T06:00:41;115150.97;;;-141.28;45.39
12358;BME280;6243;51.244;6.774;2023-07-31T06:03:07;115150.97;;;-141.28;43.79
12358;BME280;6243;51.244;6.774;2023-07-31T06:05:32;115150.97;;;-141.28;46.24
12358;BME280;6243;51.244;6.774;2023-07-31T06:07:58;115150.97;;;-141.28;45.87
12358;BME280;6243;51.244;6.774;2023-07-31T06:10:23;115150.97;;;-141.28;48.22
12358;BME280;6243;51.244;6.774;2023-07-31T06:12:49;115150.97;;;-141.28;45.91
12358;BME280;6243;51.244;6.774;2023-07-31T06:15:16;115150.97;;;-141.28;49.30
12358;BME280;6243;51.244;6.774;2023-07-31T06:17:41;115150.97;;;-141.28;48.70
12358;BME280;6243;51.244;6.774;2023-07-31T06:20:07;115150.97;;;-141.28;47.48
12358;BME280;6243;51.244;6.774;2023-07-31T06:22:33;115150.97;;;-141.28;46.24
12358;BME280;6243;51.244;6.774;2023-07-31T06:24:59;115150.97;;;-141.28;47.36
12358;BME280;6243;51.244;6.774;2023-07-31T06:27:24;115150.97;;;-141.28;48.45
12358;BME280;6243;51.244;6.774;2023-07-31T06:29:50;115150.97;;;-141.28;46.28
12358;BME280;6243;51.244;6.774;2023-07-31T06:32:17;115150.97;;;-141.28;46.46
12358;BME280;6243;51.244;6.774;2023-07-31T06:34:42;115150.97;;;-141.28;45.58
12358;BME280;6243;51.244;6.774;2023-07-31T06:37:08;115150.97;;;-141.28;47.39
12358;BME280;6243;51.244;6.774;2023-07-31T06:39:33;115150.97;;;-141.28;45.46
12358;BME280;6243;51.244;6.774;2023-07-31T06:41:59;115150.97;;;-141.28;43.92
12358;BME280;6243;51.244;6.774;2023-07-31T06:44:24;115150.97;;;-141.28;45.56
12358;BME280;6243;51.244;6.774;2023-07-31T06:46:50;115150.97;;;-141.28;46.92
12358;BME280;6243;51.244;6.774;2023-07-31T06:49:17;115150.97;;;-141.28;45.40
12358;BME280;6243;51.244;6.774;2023-07-31T06:51:43;115150.97;;;-141.28;46.44
12358;BME280;6243;51.244;6.774;2023-07-31T06:54:08;115150.97;;;-141.28;44.64
12358;BME280;6243;51.244;6.774;2023-07-31T06:56:34;115150.97;;;-141.28;44.98
12358;BME280;6243;51.244;6.774;2023-07-31T06:58:59;115150.97;;;-141.28;45.71
12358;BME280;6243;51.244;6.774;2023-07-31T07:01:25;115150.97;;;-141.28;44.82
12358;BME280;6243;51.244;6.774;2023-07-31T07:03:51;115150.97;;;-141.28;45.45
12358;BME280;6243;51.244;6.774;2023-07-31T07:06:17;115150.97;;;-141.28;42.89
12358;BME280;6243;51.244;6.774;2023-07-31T07:08:43;115150.97;;;-141.28;43.65
12358;BME280;6243;51.244;6.774;2023-07-31T07:11:09;115150.97;;;-141.28;45.17
12358;BME280;6243;51.244;6.774;2023-07-31T07:13:34;115150.97;;;-141.28;44.03
12358;BME280;6243;51.244;6.774;2023-07-31T07:15:59;115150.97;;;-141.28;44.66
12358;BME280;6243;51.244;6.774;2023-07-31T07:18:25;115150.97;;;-141.28;45.51
12358;BME280;6243;51.244;6.774;2023-07-31T07:20:52;115150.97;;;-141.28;43.82
12358;BME280;6243;51.244;6.774;2023-07-31T07:23:19;115150.97;;;-141.28;42.87
12358;BME280;6243;51.244;6.774;2023-07-31T07:25:45;115150.97;;;-141.28;45.63
12358;BME280;6243;51.244;6.774;2023-07-31T07:28:11;115150.97;;;-141.28;42.75
12358;BME280;6243;51.244;6.774;2023-07-31T07:30:37;115150.97;;;-141.28;43.22
12358;BME280;6243;51.244;6.774;2023-07-31T07:33:02;115150.97;;;-141.28;43.90
12358;BME280;6243;51.244;6.774;2023-07-31T07:35:28;115150.97;;;-141.28;45.39
12358;BME280;6243;51.244;6.774;2023-07-31T07:37:54;115150.97;;;-141.28;43.77
12358;BME280;6243;51.244;6.774;2023-07-31T07:40:21;115150.97;;;-141.28;44.95
12358;BME280;6243;51.244;6.774;2023-07-31T07:42:47;115150.97;;;-141.28;46.91
12358;BME280;6243;51.244;6.774;2023-07-31T07:45:12;115150.97;;;-141.28;46.33
12358;BME280;6243;51.244;6.774;2023-07-31T07:47:38;115150.97;;;-141.28;45.86
12358;BME280;6243;51.244;6.774;2023-07-31T07:50:04;115150.97;;;-141.28;44.88
12358;BME280;6243;51.244;6.774;2023-07-31T07:52:30;115150.97;;;-141.28;45.41
12358;BME280;6243;51.244;6.774;2023-07-31T07:54:55;115150.97;;;-141.28;45.00
12358;BME280;6243;51.244;6.774;2023-07-31T07:57:22;115150.97;;;-141.28;43.92
12358;BME280;6243;51.244;6.774;2023-07-31T07:59:48;115150.97;;;-141.28;42.94
12358;BME280;6243;51.244;6.774;2023-07-31T08:02:13;115150.97;;;-141.28;43.92
12358;BME280;6243;51.244;6.774;2023-07-31T08:04:39;115150.97;;;-141.28;43.04
12358;BME280;6243;51.244;6.774;2023-07-31T08:07:05;115150.97;;;-141.28;45.46
12358;BME280;6243;51.244;6.774;2023-07-31T08:09:30;115150.97;;;-141.28;46.57
12358;BME280;6243;51.244;6.774;2023-07-31T08:11:56;115150.97;;;-141.28;43.21
12358;BME280;6243;51.244;6.774;2023-07-31T08:14:23;115150.97;;;-141.28;46.92
12358;BME280;6243;51.244;6.774;2023-07-31T08:16:48;115150.97;;;-141.28;44.10
12358;BME280;6243;51.244;6.774;2023-07-31T08:19:14;115150.97;;;-141.28;47.57
12358;BME280;6243;51.244;6.774;2023-07-31T08:21:39;115150.97;;;-141.28;46.92
12358;BME280;6243;51.244;6.774;2023-07-31T08:24:05;115150.97;;;-141.28;47.45
12358;BME280;6243;51.244;6.774;2023-07-31T08:26:30;115150.97;;;-141.28;47.24
12358;BME280;6243;51.244;6.774;2023-07-31T08:28:56;115150.97;;;-141.28;43.64
12358;BME280;6243;51.244;6.774;2023-07-31T08:31:23;115150.97;;;-141.28;43.11
12358;BME280;6243;51.244;6.774;2023-07-31T08:33:48;115150.97;;;-141.28;44.91
12358;BME280;6243;51.244;6.774;2023-07-31T08:36:13;115150.97;;;-141.28;46.38
12358;BME280;6243;51.244;6.774;2023-07-31T08:38:39;115150.97;;;-141.28;44.73
12358;BME280;6243;51.244;6.774;2023-07-31T08:41:05;115150.97;;;-141.28;45.16
12358;BME280;6243;51.244;6.774;2023-07-31T08:43:30;115150.97;;;-141.28;44.09
12358;BME280;6243;51.244;6.774;2023-07-31T08:45:56;115150.97;;;-141.28;44.91
12358;BME280;6243;51.244;6.774;2023-07-31T08:48:24;115150.97;;;-141.28;45.71
12358;BME280;6243;51.244;6.774;2023-07-31T08:50:51;115150.97;;;-141.28;46.74
12358;BME280;6243;51.244;6.774;2023-07-31T08:53:17;115150.97;;;-141.28;47.14
12358;BME280;6243;51.244;6.774;2023-07-31T08:55:44;115150.97;;;-141.28;48.17
12358;BME280;6243;51.244;6.774;2023-07-31T08:58:12;115150.97;;;-141.28;47.22
12358;BME280;6243;51.244;6.774;2023-07-31T09:00:38;115150.97;;;-141.28;44.93
12358;BME280;6243;51.244;6.774;2023-07-31T09:03:09;115150.97;;;-141.28;47.09
12358;BME280;6243;51.244;6.774;2023-07-31T09:05:42;115150.97;;;-141.28;44.82
12358;BME280;6243;51.244;6.774;2023-07-31T09:08:09;115150.97;;;-141.28;51.20
12358;BME280;6243;51.244;6.774;2023-07-31T09:10:34;115150.97;;;-141.28;50.54
12358;BME280;6243;51.244;6.774;2023-07-31T09:13:00;115150.97;;;-141.28;46.61
12358;BME280;6243;51.244;6.774;2023-07-31T09:15:27;115150.97;;;-141.28;47.59
12358;BME280;6243;51.244;6.774;2023-07-31T09:17:59;115150.97;;;-141.28;50.66
12358;BME280;6243;51.244;6.774;2023-07-31T09:20:25;115150.97;;;-141.28;49.84
12358;BME280;6243;51.244;6.774;2023-07-31T09:22:52;115150.97;;;-141.28;47.92
12358;BME280;6243;51.244;6.774;2023-07-31T09:25:18;115150.97;;;-141.28;48.81
12358;BME280;6243;51.244;6.774;2023-07-31T09:27:49;115150.97;;;-141.28;46.63
12358;BME280;6243;51.244;6.774;2023-07-31T09:30:16;115150.97;;;-141.28;48.10
12358;BME280;6243;51.244;6.774;2023-07-31T09:32:42;115150.97;;;-141.28;47.95
12358;BME280;6243;51.244;6.774;2023-07-31T09:35:18;115150.97;;;-141.28;46.32
12358;BME280;6243;51.244;6.774;2023-07-31T09:37:44;115150.97;;;-141.28;49.86
12358;BME280;6243;51.244;6.774;2023-07-31T09:40:24;115150.97;;;-141.28;46.32
12358;BME280;6243;51.244;6.774;2023-07-31T09:42:50;115150.97;;;-141.28;44.85
12358;BME280;6243;51.244;6.774;2023-07-31T09:45:18;115150.97;;;-141.28;47.91
12358;BME280;6243;51.244;6.774;2023-07-31T09:47:46;115150.97;;;-141.28;49.26
12358;BME280;6243;51.244;6.774;2023-07-31T09:50:14;115150.97;;;-141.28;47.37
12358;BME280;6243;51.244;6.774;2023-07-31T09:52:39;115150.97;;;-141.28;50.74
12358;BME280;6243;51.244;6.774;2023-07-31T09:55:05;115150.97;;;-141.28;48.33
12358;BME280;6243;51.244;6.774;2023-07-31T09:57:33;115150.97;;;-141.28;45.74
12358;BME280;6243;51.244;6.774;2023-07-31T09:59:59;115150.97;;;-141.28;48.24
12358;BME280;6243;51.244;6.774;2023-07-31T10:02:26;115150.97;;;-141.28;45.88
12358;BME280;6243;51.244;6.774;2023-07-31T10:04:53;115150.97;;;-141.28;48.20
12358;BME280;6243;51.244;6.774;2023-07-31T10:07:23;115150.97;;;-141.28;49.64
12358;BME280;6243;51.244;6.774;2023-07-31T10:09:51;115150.97;;;-141.28;45.83
12358;BME280;6243;51.244;6.774;2023-07-31T10:12:19;115150.97;;;-141.28;46.61
12358;BME280;6243;51.244;6.774;2023-07-31T10:14:48;115150.97;;;-141.28;51.63
12358;BME280;6243;51.244;6.774;2023-07-31T10:17:14;115150.97;;;-141.28;45.76
12358;BME280;6243;51.244;6.774;2023-07-31T10:19:40;115150.97;;;-141.28;45.98
12358;BME280;6243;51.244;6.774;2023-07-31T10:22:07;115150.97;;;-141.28;47.76
12358;BME280;6243;51.244;6.774;2023-07-31T10:24:34;115150.97;;;-141.28;50.20
12358;BME280;6243;51.244;6.774;2023-07-31T10:27:01;115150.97;;;-141.28;47.90
12358;BME280;6243;51.244;6.774;2023-07-31T10:29:27;115150.97;;;-141.28;45.99
12358;BME280;6243;51.244;6.774;2023-07-31T10:31:56;115150.97;;;-141.28;47.26
12358;BME280;6243;51.244;6.774;2023-07-31T10:34:23;115150.97;;;-141.28;45.80
12358;BME280;6243;51.244;6.774;2023-07-31T10:36:48;115150.97;;;-141.28;47.75
12358;BME280;6243;51.244;6.774;2023-07-31T10:39:33;115150.97;;;-141.28;50.19
12358;BME280;6243;51.244;6.774;2023-07-31T10:41:59;115150.97;;;-141.28;44.26
12358;BME280;6243;51.244;6.774;2023-07-31T10:44:24;115150.97;;;-141.28;45.10
12358;BME280;6243;51.244;6.774;2023-07-31T10:46:55;115150.97;;;-141.28;45.06
12358;BME280;6243;51.244;6.774;2023-07-31T10:49:21;115150.97;;;-141.28;44.75
12358;BME280;6243;51.244;6.774;2023-07-31T10:51:47;115150.97;;;-141.28;45.59
12358;BME280;6243;51.244;6.774;2023-07-31T10:54:13;115150.97;;;-141.28;45.05
12358;BME280;6243;51.244;6.774;2023-07-31T10:56:44;115150.97;;;-141.28;47.97
12358;BME280;6243;51.244;6.774;2023-07-31T10:59:10;115150.97;;;-141.28;46.60
12358;BME280;6243;51.244;6.774;2023-07-31T11:01:51;115150.97;;;-141.28;46.39
12358;BME280;6243;51.244;6.774;2023-07-31T11:04:22;115150.97;;;-141.28;44.58
12358;BME280;6243;51.244;6.774;2023-07-31T11:06:56;115150.97;;;-141.28;45.40
12358;BME280;6243;51.244;6.774;2023-07-31T11:09:21;115150.97;;;-141.28;44.92
12358;BME280;6243;51.244;6.774;2023-07-31T11:11:47;115150.97;;;-141.28;43.29
12358;BME280;6243;51.244;6.774;2023-07-31T11:14:12;115150.97;;;-141.28;43.09
12358;BME280;6243;51.244;6.774;2023-07-31T11:16:41;115150.97;;;-141.28;44.50
12358;BME280;6243;51.244;6.774;2023-07-31T11:19:08;115150.97;;;-141.28;43.75
12358;BME280;6243;51.244;6.774;2023-07-31T11:21:36;115150.97;;;-141.28;42.68
12358;BME280;6243;51.244;6.774;2023-07-31T11:24:02;115150.97;;;-141.28;42.03
12358;BME280;6243;51.244;6.774;2023-07-31T11:26:28;115150.97;;;-141.28;40.87
12358;BME280;6243;51.244;6.774;2023-07-31T11:28:53;115150.97;;;-141.28;42.94
12358;BME280;6243;51.244;6.774;2023-07-31T11:31:19;115150.97;;;-141.28;42.38
12358;BME280;6243;51.244;6.774;2023-07-31T11:33:44;115150.97;;;-141.28;44.47
12358;BME280;6243;51.244;6.774;2023-07-31T11:36:14;115150.97;;;-141.28;44.34
12358;BME280;6243;51.244;6.774;2023-07-31T11:38:41;115150.97;;;-141.28;42.49
12358;BME280;6243;51.244;6.774;2023-07-31T11:41:07;115150.97;;;-141.28;43.57
12358;BME280;6243;51.244;6.774;2023-07-31T11:43:33;115150.97;;;-141.28;44.22
12358;BME280;6243;51.244;6.774;2023-07-31T11:46:00;115150.97;;;-141.28;43.35
12358;BME280;6243;51.244;6.774;2023-07-31T11:48:27;115150.97;;;-141.28;44.58
12358;BME280;6243;51.244;6.774;2023-07-31T11:50:54;115150.97;;;-141.28;44.64
12358;BME280;6243;51.244;6.774;2023-07-31T11:53:25;115150.97;;;-141.28;42.28
12358;BME280;6243;51.244;6.774;2023-07-31T11:55:54;115150.97;;;-141.28;41.20
12358;BME280;6243;51.244;6.774;2023-07-31T11:58:20;115150.97;;;-141.28;41.29
12358;BME280;6243;51.244;6.774;2023-07-31T12:00:47;115150.97;;;-141.28;40.95
12358;BME280;6243;51.244;6.774;2023-07-31T12:03:13;115150.97;;;-141.28;40.13
12358;BME280;6243;51.244;6.774;2023-07-31T12:05:39;115150.97;;;-141.28;43.02
12358;BME280;6243;51.244;6.774;2023-07-31T12:08:09;115150.97;;;-141.28;41.20
12358;BME280;6243;51.244;6.774;2023-07-31T12:10:35;115150.97;;;-141.28;42.07
12358;BME280;6243;51.244;6.774;2023-07-31T12:13:04;115150.97;;;-141.28;43.67
12358;BME280;6243;51.244;6.774;2023-07-31T12:15:41;115150.97;;;-141.28;40.89
12358;BME280;6243;51.244;6.774;2023-07-31T12:18:08;115150.97;;;-141.28;41.77
12358;BME280;6243;51.244;6.774;2023-07-31T12:20:35;115150.97;;;-141.28;43.72
12358;BME280;6243;51.244;6.774;2023-07-31T12:23:01;115150.97;;;-141.28;42.73
12358;BME280;6243;51.244;6.774;2023-07-31T12:25:31;115150.97;;;-141.28;42.31
12358;BME280;6243;51.244;6.774;2023-07-31T12:27:57;115150.97;;;-141.28;42.24
12358;BME280;6243;51.244;6.774;2023-07-31T12:30:32;115150.97;;;-141.28;43.57
12358;BME280;6243;51.244;6.774;2023-07-31T12:33:03;115150.97;;;-141.28;43.97
12358;BME280;6243;51.244;6.774;2023-07-31T12:35:34;115150.97;;;-141.28;45.70
12358;BME280;6243;51.244;6.774;2023-07-31T12:38:01;115150.97;;;-141.28;43.37